Time;durP1;ratioP1;P1;durP2;ratioP2;P2;SDS_P1;SDS_P2;PMS_P1;PMS_P2;Temp;Humidity;BMP_temperature;BMP_pressure;BME280_temperature;BME280_humidity;BME280_pressure;Samples;Min_cycle;Max_cycle;Signal;HPM_P1;HPM_P2
2019/04/22 00:01:13;;;;;;;10.2;5.9;;;;;;;16.28;35.28223;958.4966;;;;
2019/04/22 00:03:36;;;;;;;10.1;5.4;;;;;;;16.27;35.2334;958.4644;;;;
2019/04/22 00:06:03;;;;;;;11.5;5;;;;;;;16.19;37.25586;958.4643;;;;
2019/04/22 00:08:28;;;;;;;10;5.5;;;;;;;16.23;38.50684;958.4079;;;;
2019/04/22 00:10:54;;;;;;;10.6;5.5;;;;;;;16.2;38.56348;958.4141;;;;
2019/04/22 00:13:19;;;;;;;11.7;5.5;;;;;;;16.18;37.93262;958.3607;;;;
2019/04/22 00:15:44;;;;;;;11.2;5;;;;;;;16.13;36.6709;958.3344;;;;
2019/04/22 00:18:09;;;;;;;9.7;4.9;;;;;;;16.18;36.22266;958.2911;;;;
2019/04/22 00:20:34;;;;;;;8.4;4.8;;;;;;;16.14;35.9707;958.1978;;;;
2019/04/22 00:24:08;;;;;;;11.3;4.8;;;;;;;16.13;36.13574;958.1914;;;;
2019/04/22 00:26:34;;;;;;;7.9;4.6;;;;;;;16.13;35.98242;958.2162;;;;
2019/04/22 00:29:00;;;;;;;9;4.5;;;;;;;16.1;36.13281;958.1753;;;;
2019/04/22 00:33:52;;;;;;;8.1;4.7;;;;;;;15.88;36.57813;958.1584;;;;
2019/04/22 00:36:16;;;;;;;9.8;5.1;;;;;;;15.85;37.03809;958.0951;;;;
2019/04/22 00:38:41;;;;;;;10.1;5.1;;;;;;;15.79;37.28223;958.0771;;;;
2019/04/22 00:41:06;;;;;;;8.5;4.7;;;;;;;15.74;37.43262;958.1298;;;;
2019/04/22 00:43:33;;;;;;;14;5.3;;;;;;;15.59;37.68066;958.1434;;;;
2019/04/22 00:45:58;;;;;;;10.3;5;;;;;;;15.63;37.55371;958.1735;;;;
2019/04/22 00:48:23;;;;;;;9.7;4.8;;;;;;;15.53;37.61621;958.1555;;;;
2019/04/22 00:50:49;;;;;;;8.9;4.5;;;;;;;15.44;37.2998;958.0765;;;;
2019/04/22 00:53:16;;;;;;;9.3;4.6;;;;;;;15.5;37.51758;958.1316;;;;
2019/04/22 00:55:46;;;;;;;9.7;4.8;;;;;;;15.31;37.89355;958.0499;;;;
2019/04/22 00:58:14;;;;;;;12.8;4.5;;;;;;;15.09;38.04102;958.0416;;;;
2019/04/22 01:00:41;;;;;;;9.6;4.4;;;;;;;14.94;38.55859;958.038;;;;
2019/04/22 01:03:07;;;;;;;7.4;4.4;;;;;;;14.87;37.70117;958.0254;;;;
2019/04/22 01:05:32;;;;;;;8;4.2;;;;;;;15.03;38.14063;958.0497;;;;
2019/04/22 01:07:57;;;;;;;7.5;4.4;;;;;;;15.09;38.13477;957.9158;;;;
2019/04/22 01:10:30;;;;;;;8.5;4.2;;;;;;;15.1;38.02832;957.9785;;;;
2019/04/22 01:13:16;;;;;;;12;4.4;;;;;;;15.13;37.71191;957.8412;;;;
2019/04/22 01:15:41;;;;;;;9;4.4;;;;;;;15.1;37.56738;957.9183;;;;
2019/04/22 01:18:06;;;;;;;8.1;4.3;;;;;;;15.08;37.58887;957.7902;;;;
2019/04/22 01:20:31;;;;;;;6.2;4;;;;;;;15.05;37.78711;957.8317;;;;
2019/04/22 01:22:57;;;;;;;10.5;4.3;;;;;;;15.02;37.87988;957.7985;;;;
2019/04/22 01:25:22;;;;;;;7.9;4.5;;;;;;;15.03;37.91602;957.7184;;;;
2019/04/22 01:27:47;;;;;;;7.4;4.2;;;;;;;15.06;38.22754;957.7068;;;;
2019/04/22 01:30:13;;;;;;;8.5;4.3;;;;;;;15.11;38.08887;957.632;;;;
2019/04/22 01:32:38;;;;;;;8.3;4.4;;;;;;;15.12;37.81836;957.717;;;;
2019/04/22 01:35:03;;;;;;;8.3;4.4;;;;;;;15.1;36.50098;957.6639;;;;
2019/04/22 01:37:29;;;;;;;7;4.3;;;;;;;15.11;36.87012;957.666;;;;
2019/04/22 01:39:53;;;;;;;15.9;5.6;;;;;;;15.12;36.75195;957.5859;;;;
2019/04/22 01:42:18;;;;;;;10.9;4.7;;;;;;;15.16;36.29297;957.5729;;;;
2019/04/22 01:44:43;;;;;;;8.2;4.9;;;;;;;15.17;35.27539;957.5637;;;;
2019/04/22 01:47:08;;;;;;;7.3;4.7;;;;;;;15.08;36.30957;957.5818;;;;
2019/04/22 01:49:33;;;;;;;8.8;4.6;;;;;;;15.13;36.66895;957.5674;;;;
2019/04/22 01:51:59;;;;;;;7.5;4.8;;;;;;;15.19;36.09375;957.5327;;;;
2019/04/22 01:54:24;;;;;;;7.8;4.8;;;;;;;15.08;35.31543;957.4886;;;;
2019/04/22 01:56:49;;;;;;;8.3;4.7;;;;;;;15.17;35.39355;957.4272;;;;
2019/04/22 01:59:14;;;;;;;9.4;5.1;;;;;;;15.3;34.08887;957.3354;;;;
2019/04/22 02:01:57;;;;;;;8.1;4.9;;;;;;;15.35;34.0332;957.3734;;;;
2019/04/22 02:04:22;;;;;;;10.8;5.3;;;;;;;15.39;33.97754;957.2686;;;;
2019/04/22 02:06:47;;;;;;;9.2;5.1;;;;;;;15.39;34.20215;957.2739;;;;
2019/04/22 02:09:12;;;;;;;10.5;5.2;;;;;;;15.42;33.77832;957.2717;;;;
2019/04/22 02:11:37;;;;;;;9.9;5;;;;;;;15.42;33.9209;957.2756;;;;
2019/04/22 02:14:03;;;;;;;11;5.4;;;;;;;15.38;33.64355;957.2322;;;;
2019/04/22 02:16:28;;;;;;;9;5.3;;;;;;;15.36;33.47656;957.1451;;;;
2019/04/22 02:18:55;;;;;;;8.8;5.5;;;;;;;15.29;33.70898;957.1667;;;;
2019/04/22 02:21:20;;;;;;;8.4;5.1;;;;;;;15.37;33.25293;957.1869;;;;
2019/04/22 02:23:45;;;;;;;11.2;5.9;;;;;;;15.46;33.49707;957.0934;;;;
2019/04/22 02:26:10;;;;;;;8.9;5.2;;;;;;;15.45;33.4248;957.1135;;;;
2019/04/22 02:28:35;;;;;;;8.1;5.3;;;;;;;15.34;33.53516;957.0471;;;;
2019/04/22 02:31:00;;;;;;;9.8;5.5;;;;;;;15.42;33.5293;957.105;;;;
2019/04/22 02:33:25;;;;;;;9.1;5.3;;;;;;;15.43;33.64844;957.055;;;;
2019/04/22 02:35:50;;;;;;;8.3;4.9;;;;;;;15.44;34.43164;957.0403;;;;
2019/04/22 02:38:16;;;;;;;9.4;5.3;;;;;;;15.39;34.77148;957.034;;;;
2019/04/22 02:40:41;;;;;;;10.2;5.3;;;;;;;15.32;34.64746;956.9731;;;;
2019/04/22 02:43:06;;;;;;;9.7;5.2;;;;;;;15.28;35.04688;956.9598;;;;
2019/04/22 02:45:32;;;;;;;7.6;5;;;;;;;15.28;35.39063;956.9506;;;;
2019/04/22 02:47:57;;;;;;;8.8;5.2;;;;;;;15.23;34.6748;956.9182;;;;
2019/04/22 02:50:22;;;;;;;7.6;5.1;;;;;;;15.2;35.31348;956.9359;;;;
2019/04/22 02:52:47;;;;;;;9.9;5.2;;;;;;;15.12;35.45996;956.8478;;;;
2019/04/22 02:55:13;;;;;;;10;5.8;;;;;;;15.09;35.29297;956.8225;;;;
2019/04/22 02:57:38;;;;;;;7.8;5.2;;;;;;;15.02;35.97363;956.7368;;;;
2019/04/22 03:00:03;;;;;;;11;5.5;;;;;;;14.97;35.71973;956.7434;;;;
2019/04/22 03:02:28;;;;;;;8.5;5.2;;;;;;;15;35.25;956.6703;;;;
2019/04/22 03:04:53;;;;;;;9.3;5.6;;;;;;;15;35.14258;956.6102;;;;
2019/04/22 03:07:19;;;;;;;9.1;5.2;;;;;;;14.99;35.1416;956.6512;;;;
2019/04/22 03:09:44;;;;;;;8.8;5.6;;;;;;;14.9;34.70801;956.6525;;;;
2019/04/22 03:12:09;;;;;;;9.9;5.4;;;;;;;14.87;34.71875;956.644;;;;
2019/04/22 03:14:34;;;;;;;11.2;5.7;;;;;;;14.91;34.51953;956.6102;;;;
2019/04/22 03:16:59;;;;;;;9.2;5.5;;;;;;;14.92;34.54492;956.6385;;;;
2019/04/22 03:19:24;;;;;;;9.8;5.4;;;;;;;14.93;34.21387;956.54;;;;
2019/04/22 03:21:50;;;;;;;8.5;5.5;;;;;;;14.89;34.30566;956.5136;;;;
2019/04/22 03:24:15;;;;;;;9.5;5.8;;;;;;;14.88;34.22168;956.5151;;;;
2019/04/22 03:26:40;;;;;;;11.2;5.7;;;;;;;14.88;34.24512;956.5151;;;;
2019/04/22 03:29:05;;;;;;;9.1;5.4;;;;;;;14.92;34.16504;956.4866;;;;
2019/04/22 03:31:30;;;;;;;10.3;5.5;;;;;;;14.92;34.22461;956.4905;;;;
2019/04/22 03:33:55;;;;;;;10.6;5.6;;;;;;;14.89;34.37695;956.452;;;;
2019/04/22 03:36:23;;;;;;;10.2;5.8;;;;;;;14.8;34.70117;956.4571;;;;
2019/04/22 03:38:48;;;;;;;12.4;6;;;;;;;14.78;34.28516;956.4919;;;;
2019/04/22 03:41:13;;;;;;;9.4;5.7;;;;;;;14.77;34.93457;956.5174;;;;
2019/04/22 03:43:38;;;;;;;7.6;5.4;;;;;;;14.74;35.40625;956.5179;;;;
2019/04/22 03:46:03;;;;;;;11;5.8;;;;;;;14.66;35.66016;956.5162;;;;
2019/04/22 03:48:29;;;;;;;8.6;5.4;;;;;;;14.58;35.74805;956.462;;;;
2019/04/22 03:50:54;;;;;;;8.2;5.6;;;;;;;14.44;36.41016;956.3939;;;;
2019/04/22 03:53:21;;;;;;;7.1;5.3;;;;;;;14.3;36.93066;956.4147;;;;
2019/04/22 03:55:47;;;;;;;9;5.9;;;;;;;14.24;36.98535;956.3728;;;;
2019/04/22 03:58:12;;;;;;;12.8;6.1;;;;;;;14.21;37.24219;956.3658;;;;
2019/04/22 04:02:29;;;;;;;11.9;5.7;;;;;;;14.12;37.89551;956.3801;;;;
2019/04/22 04:04:56;;;;;;;8;5.5;;;;;;;14.08;37.92773;956.3616;;;;
2019/04/22 04:07:21;;;;;;;10.3;5.7;;;;;;;13.99;38.35742;956.3533;;;;
2019/04/22 04:09:47;;;;;;;12.3;5.7;;;;;;;13.96;38.60254;956.3463;;;;
2019/04/22 04:12:12;;;;;;;11.1;5.6;;;;;;;13.89;39.05664;956.2997;;;;
2019/04/22 04:14:40;;;;;;;10.6;5.4;;;;;;;13.83;39.13477;956.2839;;;;
2019/04/22 04:17:05;;;;;;;9.3;5.3;;;;;;;13.89;38.97461;956.399;;;;
2019/04/22 04:19:31;;;;;;;10.3;5.6;;;;;;;13.96;39.96094;956.4117;;;;
2019/04/22 04:21:57;;;;;;;9;5.7;;;;;;;13.94;40.44434;956.4277;;;;
2019/04/22 04:24:23;;;;;;;8.4;5.3;;;;;;;13.9;41.14844;956.3318;;;;
2019/04/22 04:26:48;;;;;;;10;5.9;;;;;;;13.9;41.03027;956.3676;;;;
2019/04/22 04:29:14;;;;;;;10.2;5.7;;;;;;;13.88;41.35938;956.3666;;;;
2019/04/22 04:31:39;;;;;;;11.3;6.3;;;;;;;13.86;41.32227;956.3226;;;;
2019/04/22 04:34:04;;;;;;;12.7;5.7;;;;;;;13.86;41.3457;956.345;;;;
2019/04/22 04:36:29;;;;;;;11.2;5.7;;;;;;;13.82;41.31836;956.2814;;;;
2019/04/22 04:38:54;;;;;;;10.7;6.1;;;;;;;13.68;41.97754;956.2707;;;;
2019/04/22 04:41:19;;;;;;;16;5.8;;;;;;;13.52;42.42285;956.2983;;;;
2019/04/22 04:43:45;;;;;;;12.9;6.2;;;;;;;13.41;42.97852;956.4327;;;;
2019/04/22 04:46:10;;;;;;;11.2;5.9;;;;;;;13.4;43.13086;956.2946;;;;
2019/04/22 04:48:35;;;;;;;9.7;5.7;;;;;;;13.44;43.19434;956.3786;;;;
2019/04/22 04:51:00;;;;;;;14.5;5.4;;;;;;;13.5;43.30566;956.3013;;;;
2019/04/22 04:53:25;;;;;;;13.3;5.6;;;;;;;13.65;43.1084;956.3722;;;;
2019/04/22 04:55:50;;;;;;;8.2;5.5;;;;;;;13.7;43.26563;956.324;;;;
2019/04/22 04:58:16;;;;;;;9.8;5.8;;;;;;;13.76;43.37891;956.3066;;;;
2019/04/22 05:00:41;;;;;;;10.5;5.4;;;;;;;13.84;43.05664;956.3387;;;;
2019/04/22 05:03:06;;;;;;;11;6.1;;;;;;;13.89;42.94238;956.3428;;;;
2019/04/22 05:05:31;;;;;;;8.6;5.8;;;;;;;13.94;42.99512;956.2589;;;;
2019/04/22 05:07:56;;;;;;;9.3;5.5;;;;;;;13.99;41.53516;956.3271;;;;
2019/04/22 05:10:21;;;;;;;8.9;5.5;;;;;;;14.07;39.77051;956.2413;;;;
2019/04/22 05:12:46;;;;;;;11;5.6;;;;;;;14.19;38.31641;956.2619;;;;
2019/04/22 05:15:11;;;;;;;8;5.7;;;;;;;14.27;37.76758;956.2622;;;;
2019/04/22 05:17:36;;;;;;;9;5.3;;;;;;;14.33;37.05078;956.2645;;;;
2019/04/22 05:20:01;;;;;;;10.4;5.6;;;;;;;14.45;36.4707;956.2654;;;;
2019/04/22 05:22:27;;;;;;;8.2;5.4;;;;;;;14.42;35.85254;956.2245;;;;
2019/04/22 05:25:01;;;;;;;10.8;5.5;;;;;;;14.56;35.9834;956.2572;;;;
2019/04/22 05:27:34;;;;;;;8;5.5;;;;;;;14.63;35.75195;956.2827;;;;
2019/04/22 05:30:12;;;;;;;9.5;5.5;;;;;;;14.69;35.91016;956.2314;;;;
2019/04/22 05:32:37;;;;;;;8.1;4.9;;;;;;;14.68;35.1416;956.2104;;;;
2019/04/22 05:35:14;;;;;;;9.8;5.3;;;;;;;14.74;35.16895;956.2073;;;;
2019/04/22 05:37:44;;;;;;;7.6;5.2;;;;;;;14.79;34.94824;956.1983;;;;
2019/04/22 05:40:10;;;;;;;8.9;5;;;;;;;14.88;34.91992;956.1705;;;;
2019/04/22 05:42:35;;;;;;;8.7;5.3;;;;;;;14.85;34.95313;956.1859;;;;
2019/04/22 05:45:00;;;;;;;8.4;5.4;;;;;;;14.8;34.55859;956.1313;;;;
2019/04/22 05:47:25;;;;;;;9.4;5.3;;;;;;;14.76;35.47852;956.0812;;;;
2019/04/22 05:49:50;;;;;;;7.7;5.1;;;;;;;14.95;34.98535;956.1307;;;;
2019/04/22 05:52:15;;;;;;;11.6;5.2;;;;;;;14.73;34.88379;956.0888;;;;
2019/04/22 05:54:40;;;;;;;9.6;4.7;;;;;;;14.64;35.125;956.0754;;;;
2019/04/22 05:57:05;;;;;;;7.7;4.8;;;;;;;14.74;35.05078;956.0778;;;;
2019/04/22 05:59:30;;;;;;;6.4;4.5;;;;;;;14.9;34.7793;956.1414;;;;
2019/04/22 06:01:56;;;;;;;8.9;5.3;;;;;;;14.88;35.14453;956.0657;;;;
2019/04/22 06:04:21;;;;;;;9.6;4.9;;;;;;;14.86;35.12012;956.0781;;;;
2019/04/22 06:06:46;;;;;;;9.1;4.9;;;;;;;15.06;34.5918;956.0776;;;;
2019/04/22 06:09:11;;;;;;;7.1;4.9;;;;;;;14.81;35.19824;956.0549;;;;
2019/04/22 06:11:37;;;;;;;8.5;4.8;;;;;;;15.25;34.60547;956.005;;;;
2019/04/22 06:14:02;;;;;;;8.3;5.1;;;;;;;15.43;34.4668;955.9755;;;;
2019/04/22 06:16:27;;;;;;;7.4;4.9;;;;;;;15.33;34.51855;955.9169;;;;
2019/04/22 06:18:52;;;;;;;9.6;4.5;;;;;;;15.18;34.50586;955.9705;;;;
2019/04/22 06:21:18;;;;;;;9.8;4.6;;;;;;;15.46;34.16016;955.9692;;;;
2019/04/22 06:23:43;;;;;;;9.9;4.9;;;;;;;15.26;34.5127;956.0542;;;;
2019/04/22 06:27:36;;;;;;;8.3;4.7;;;;;;;15.52;34.22363;956.0676;;;;
2019/04/22 06:30:02;;;;;;;8.9;4.6;;;;;;;15.81;34.40137;956.0067;;;;
2019/04/22 06:32:27;;;;;;;10.6;5;;;;;;;16.03;34.12109;956.0153;;;;
2019/04/22 06:34:52;;;;;;;9;5.1;;;;;;;16.14;33.49023;955.9167;;;;
2019/04/22 06:37:17;;;;;;;7.3;4.7;;;;;;;15.71;33.82422;955.9929;;;;
2019/04/22 06:39:42;;;;;;;6.5;4.9;;;;;;;15.63;34.82617;955.9224;;;;
2019/04/22 06:42:08;;;;;;;8.1;4.9;;;;;;;15.98;34.67578;955.9064;;;;
2019/04/22 06:44:33;;;;;;;8.7;5.2;;;;;;;16.14;34.03613;955.8287;;;;
2019/04/22 06:46:58;;;;;;;7.7;4.8;;;;;;;16.04;34.82324;955.8323;;;;
2019/04/22 06:49:25;;;;;;;12.8;5.4;;;;;;;16.48;34.14453;955.7589;;;;
2019/04/22 06:51:50;;;;;;;9.9;5.3;;;;;;;16.38;33.91211;955.7836;;;;
2019/04/22 06:54:15;;;;;;;8.8;5.2;;;;;;;16.48;34.34668;955.7551;;;;
2019/04/22 06:56:40;;;;;;;7.5;5.4;;;;;;;16.67;33.96973;955.7233;;;;
2019/04/22 06:59:06;;;;;;;8.9;5.4;;;;;;;17;33.54297;955.6544;;;;
2019/04/22 07:01:31;;;;;;;7.7;5;;;;;;;17.4;33.65723;955.6216;;;;
2019/04/22 07:03:56;;;;;;;7.5;4.8;;;;;;;17.43;33.84961;955.5494;;;;
2019/04/22 07:06:21;;;;;;;8.3;4.9;;;;;;;17.79;33.44922;955.5597;;;;
2019/04/22 07:08:47;;;;;;;11.2;5.4;;;;;;;17.86;32.64355;955.5658;;;;
2019/04/22 07:11:12;;;;;;;8.6;4.9;;;;;;;17.74;32.51563;955.5488;;;;
2019/04/22 07:13:37;;;;;;;10.3;4.9;;;;;;;17.91;32.68359;955.4979;;;;
2019/04/22 07:16:03;;;;;;;9.2;5.2;;;;;;;17.97;32.33008;955.5245;;;;
2019/04/22 07:18:28;;;;;;;6.4;4.8;;;;;;;18.37;32.13184;955.4744;;;;
2019/04/22 07:20:54;;;;;;;9.2;5;;;;;;;18.38;32.07324;955.4503;;;;
2019/04/22 07:23:19;;;;;;;11.8;4.9;;;;;;;18.44;31.75586;955.3958;;;;
2019/04/22 07:25:44;;;;;;;9.5;4.8;;;;;;;18.59;32.11328;955.3326;;;;
2019/04/22 07:28:10;;;;;;;8.3;5;;;;;;;18.64;32.06836;955.3887;;;;
2019/04/22 07:30:35;;;;;;;9.4;5.3;;;;;;;18.8;32.24805;955.2784;;;;
2019/04/22 07:33:00;;;;;;;9.3;4.9;;;;;;;18.94;31.09863;955.3049;;;;
2019/04/22 07:35:25;;;;;;;11.1;5;;;;;;;19.13;31.58984;955.2327;;;;
2019/04/22 07:37:50;;;;;;;8.3;4.7;;;;;;;19.21;30.80664;955.2445;;;;
2019/04/22 07:40:15;;;;;;;8.5;4.7;;;;;;;19.44;30.57227;955.2206;;;;
2019/04/22 07:42:40;;;;;;;11.5;5;;;;;;;19.22;31.25098;955.0881;;;;
2019/04/22 07:45:07;;;;;;;8.7;5;;;;;;;19.46;31.00391;955.1005;;;;
2019/04/22 07:47:32;;;;;;;10.5;5;;;;;;;19.46;30.9082;955.1191;;;;
2019/04/22 07:49:57;;;;;;;7.1;4.8;;;;;;;19.34;30.86426;955.0402;;;;
2019/04/22 07:52:22;;;;;;;8.9;4.6;;;;;;;19.58;30.85742;955.0695;;;;
2019/04/22 07:54:47;;;;;;;7.9;4.9;;;;;;;19.88;30.58984;955.1049;;;;
2019/04/22 07:57:12;;;;;;;6.8;4.8;;;;;;;19.78;30.2959;955.1272;;;;
2019/04/22 07:59:40;;;;;;;7.5;4.7;;;;;;;20.09;30.72461;954.9947;;;;
2019/04/22 08:02:05;;;;;;;10.4;5;;;;;;;19.97;30.1416;955.0411;;;;
2019/04/22 08:04:30;;;;;;;8.4;4.6;;;;;;;19.95;31.33789;955.0801;;;;
2019/04/22 08:06:56;;;;;;;10.1;5;;;;;;;19.92;30.12598;954.9813;;;;
2019/04/22 08:09:21;;;;;;;9.9;4.8;;;;;;;19.65;30.4668;955.0014;;;;
2019/04/22 08:11:46;;;;;;;11.6;4.9;;;;;;;19.99;30.68164;954.9302;;;;
2019/04/22 08:14:12;;;;;;;11.5;5;;;;;;;20.13;30.00879;954.8804;;;;
2019/04/22 08:16:37;;;;;;;8.2;4.9;;;;;;;20.15;29.81836;954.7527;;;;
2019/04/22 08:19:02;;;;;;;7.9;5.1;;;;;;;20.47;30.31934;954.8619;;;;
2019/04/22 08:21:27;;;;;;;9.5;4.7;;;;;;;20.57;29.49902;954.8073;;;;
2019/04/22 08:23:52;;;;;;;9.9;4.9;;;;;;;20.76;29.43945;954.7071;;;;
2019/04/22 08:26:17;;;;;;;9.6;4.5;;;;;;;21.08;29.26855;954.7208;;;;
2019/04/22 08:28:45;;;;;;;9.4;4.5;;;;;;;20.95;29.45215;954.6768;;;;
2019/04/22 08:31:16;;;;;;;7.3;4.6;;;;;;;21.15;28.99707;954.6091;;;;
2019/04/22 08:33:46;;;;;;;7.1;4.5;;;;;;;21.39;29.22949;954.6133;;;;
2019/04/22 08:36:13;;;;;;;9.1;4.5;;;;;;;21.28;29.16211;954.5867;;;;
2019/04/22 08:38:46;;;;;;;8.5;4.6;;;;;;;21.58;28.40039;954.5614;;;;
2019/04/22 08:41:13;;;;;;;9.1;4.2;;;;;;;21.9;29.16699;954.5516;;;;
2019/04/22 08:43:38;;;;;;;8.7;4.2;;;;;;;22.06;29.0332;954.5446;;;;
2019/04/22 08:46:04;;;;;;;8.7;4.6;;;;;;;21.92;27.58105;954.5028;;;;
2019/04/22 08:48:29;;;;;;;6.7;4.4;;;;;;;22.19;27.77734;954.4575;;;;
2019/04/22 08:50:54;;;;;;;8.8;4.5;;;;;;;22.2;27.24902;954.5353;;;;
2019/04/22 08:53:27;;;;;;;7;4.5;;;;;;;21.76;27.82324;954.515;;;;
2019/04/22 08:55:52;;;;;;;9.2;4.5;;;;;;;21.88;27.62598;954.4546;;;;
2019/04/22 08:58:17;;;;;;;7.9;4.3;;;;;;;21.75;28.14648;954.4734;;;;
2019/04/22 09:00:42;;;;;;;7.2;4.2;;;;;;;21.78;28.13672;954.4381;;;;
2019/04/22 09:03:07;;;;;;;4.7;3.8;;;;;;;21.55;28.13379;954.3738;;;;
2019/04/22 09:05:33;;;;;;;7.1;4;;;;;;;21.54;28.21777;954.3546;;;;
2019/04/22 09:07:58;;;;;;;10;4.2;;;;;;;21.75;29.02539;954.4847;;;;
2019/04/22 09:10:23;;;;;;;7.9;4.4;;;;;;;21.63;28.0791;954.4167;;;;
2019/04/22 09:12:48;;;;;;;6.6;4;;;;;;;21.66;28.28516;954.2827;;;;
2019/04/22 09:15:14;;;;;;;8.6;4.1;;;;;;;22.11;28.16992;954.3219;;;;
2019/04/22 09:17:39;;;;;;;8.3;4.2;;;;;;;22.19;27.21289;954.3287;;;;
2019/04/22 09:20:06;;;;;;;6.4;4.1;;;;;;;22.43;27.46777;954.33;;;;
2019/04/22 09:22:31;;;;;;;10.6;4.5;;;;;;;22.33;26.89551;954.2394;;;;
2019/04/22 09:24:56;;;;;;;6.4;4.2;;;;;;;22.22;27.05762;954.3233;;;;
2019/04/22 09:27:21;;;;;;;7.5;4.3;;;;;;;22.25;27.44434;954.2972;;;;
2019/04/22 09:29:46;;;;;;;8.1;4.3;;;;;;;22.33;27.57031;954.2985;;;;
2019/04/22 09:32:12;;;;;;;8.5;4.6;;;;;;;22.12;27.24414;954.2803;;;;
2019/04/22 09:34:37;;;;;;;9;4.5;;;;;;;22.31;27.50879;954.2223;;;;
2019/04/22 09:37:02;;;;;;;10.5;4.3;;;;;;;22.59;27.24805;954.2748;;;;
2019/04/22 09:39:27;;;;;;;7.3;4.6;;;;;;;22.32;27.79785;954.1522;;;;
2019/04/22 09:41:52;;;;;;;10.1;4.5;;;;;;;22.72;27.2207;954.1517;;;;
2019/04/22 09:44:18;;;;;;;8.9;4.6;;;;;;;22.82;26.90137;954.0598;;;;
2019/04/22 09:46:43;;;;;;;8.7;4.6;;;;;;;22.76;27.13867;954.0386;;;;
2019/04/22 09:49:08;;;;;;;8.1;4.6;;;;;;;23.1;26.08594;953.9584;;;;
2019/04/22 09:51:34;;;;;;;7.5;4.9;;;;;;;22.92;26.21973;954.04;;;;
2019/04/22 09:53:59;;;;;;;8.2;4.4;;;;;;;22.98;26.60938;953.8984;;;;
2019/04/22 09:56:25;;;;;;;8.3;4.4;;;;;;;23.33;25.97852;953.8979;;;;
2019/04/22 09:58:50;;;;;;;7.4;4.4;;;;;;;23.37;25.88477;953.813;;;;
2019/04/22 10:01:15;;;;;;;7.1;4.2;;;;;;;23.22;25.5498;953.823;;;;
2019/04/22 10:03:40;;;;;;;8;4.5;;;;;;;23.55;25.81055;953.7841;;;;
2019/04/22 10:06:05;;;;;;;9.4;4.3;;;;;;;23.27;26.34961;953.7929;;;;
2019/04/22 10:08:30;;;;;;;8.7;4.6;;;;;;;23.38;25.77637;953.7144;;;;
2019/04/22 10:10:55;;;;;;;9.2;4.5;;;;;;;23.35;26.02832;953.6589;;;;
2019/04/22 10:13:20;;;;;;;8.8;4.6;;;;;;;23.55;25.94336;953.5925;;;;
2019/04/22 10:15:45;;;;;;;9.8;4.7;;;;;;;23.2;26.24902;953.5572;;;;
2019/04/22 10:18:10;;;;;;;8.7;4.4;;;;;;;23.38;26.23535;953.5017;;;;
2019/04/22 10:20:36;;;;;;;9.1;4.3;;;;;;;23.47;25.91406;953.533;;;;
2019/04/22 10:23:01;;;;;;;8.8;4.6;;;;;;;23.62;25.99512;953.5055;;;;
2019/04/22 10:25:26;;;;;;;7.3;4.4;;;;;;;23.25;25.50293;953.5367;;;;
2019/04/22 10:27:51;;;;;;;7.5;4.3;;;;;;;23.49;26.1084;953.4839;;;;
2019/04/22 10:30:16;;;;;;;11;4.5;;;;;;;23.48;25.83008;953.4458;;;;
2019/04/22 10:32:41;;;;;;;9;4.3;;;;;;;23.45;25.75586;953.3375;;;;
2019/04/22 10:35:09;;;;;;;7;4.3;;;;;;;23.73;25.66406;953.3448;;;;
2019/04/22 10:37:33;;;;;;;10.5;4.2;;;;;;;23.65;26.17773;953.2589;;;;
2019/04/22 10:39:59;;;;;;;6.7;4;;;;;;;23.9;24.80371;953.118;;;;
2019/04/22 10:42:24;;;;;;;10.8;4;;;;;;;24.07;25.50195;953.0673;;;;
2019/04/22 10:44:49;;;;;;;8.2;4.3;;;;;;;23.71;26.19434;953.0847;;;;
2019/04/22 10:47:15;;;;;;;5.7;4.3;;;;;;;23.88;25.64844;953.0209;;;;
2019/04/22 10:49:40;;;;;;;9;4.4;;;;;;;23.98;26.07715;952.9814;;;;
2019/04/22 10:52:05;;;;;;;11.7;4.4;;;;;;;23.94;24.54004;953.0173;;;;
2019/04/22 10:54:30;;;;;;;7.5;4.3;;;;;;;23.93;24.26172;952.9016;;;;
2019/04/22 10:56:55;;;;;;;9.2;4.3;;;;;;;23.93;24.20117;952.9188;;;;
2019/04/22 10:59:21;;;;;;;7.1;4.1;;;;;;;24.3;24.18555;952.7836;;;;
2019/04/22 11:01:46;;;;;;;9.3;4.3;;;;;;;24.29;24.36523;952.7606;;;;
2019/04/22 11:04:14;;;;;;;7.5;4.2;;;;;;;24.35;24.27246;952.6906;;;;
2019/04/22 11:06:39;;;;;;;9.5;4.2;;;;;;;24.65;24.26465;952.7101;;;;
2019/04/22 11:09:05;;;;;;;9.9;4.3;;;;;;;24.96;24.00293;952.6785;;;;
2019/04/22 11:11:30;;;;;;;6;4.3;;;;;;;24.82;24.18945;952.7349;;;;
2019/04/22 11:13:55;;;;;;;6.9;4.2;;;;;;;24.95;23.61426;952.6365;;;;
2019/04/22 11:16:20;;;;;;;9.6;4;;;;;;;25.14;22.89746;952.5927;;;;
2019/04/22 11:18:45;;;;;;;8.4;4.4;;;;;;;24.68;22.94727;952.6322;;;;
2019/04/22 11:21:11;;;;;;;9.5;3.7;;;;;;;24.86;23.4043;952.5469;;;;
2019/04/22 11:23:36;;;;;;;10.2;4.2;;;;;;;24.61;22.82324;952.4839;;;;
2019/04/22 11:26:02;;;;;;;13.6;4.2;;;;;;;24.77;22.4668;952.4137;;;;
2019/04/22 11:28:27;;;;;;;8.7;3.8;;;;;;;24.94;22.35449;952.3853;;;;
2019/04/22 11:30:52;;;;;;;6.4;3.6;;;;;;;25.02;22.49219;952.3434;;;;
2019/04/22 11:33:17;;;;;;;7.3;3.8;;;;;;;25.16;21.83203;952.3699;;;;
2019/04/22 11:35:42;;;;;;;6.2;3.8;;;;;;;24.91;22.38965;952.2731;;;;
2019/04/22 11:38:07;;;;;;;6;3.9;;;;;;;25.43;22.86426;952.2648;;;;
2019/04/22 11:40:32;;;;;;;5.3;3.7;;;;;;;25.59;21.97559;952.2419;;;;
2019/04/22 11:42:57;;;;;;;10;3.9;;;;;;;25.5;21.78906;952.1236;;;;
2019/04/22 11:45:22;;;;;;;7.8;3.5;;;;;;;25.46;21.03516;952.097;;;;
2019/04/22 11:47:48;;;;;;;10;3.6;;;;;;;25.49;21.15723;952.1027;;;;
2019/04/22 11:50:13;;;;;;;6.2;3.6;;;;;;;25.7;21.3252;952.1119;;;;
2019/04/22 11:52:39;;;;;;;8;3.6;;;;;;;25.38;20.93359;952.1525;;;;
2019/04/22 11:55:05;;;;;;;5.5;3.5;;;;;;;25.24;21.41309;952.0862;;;;
2019/04/22 11:57:30;;;;;;;8.6;3.4;;;;;;;25.21;22.08984;952.0634;;;;
2019/04/22 11:59:55;;;;;;;9.3;3.8;;;;;;;24.98;23.14355;952.0809;;;;
2019/04/22 12:02:23;;;;;;;7.8;4.2;;;;;;;25.02;24.13867;952.041;;;;
2019/04/22 12:04:46;;;;;;;10.3;4.3;;;;;;;25.33;23.12598;952.0023;;;;
2019/04/22 12:07:11;;;;;;;6.7;4.3;;;;;;;25.36;23.90332;951.968;;;;
2019/04/22 12:09:36;;;;;;;10;4.4;;;;;;;25.23;23.99316;951.9339;;;;
2019/04/22 12:12:01;;;;;;;5.3;4;;;;;;;25.32;23.90137;951.9243;;;;
2019/04/22 12:14:26;;;;;;;7.2;4.3;;;;;;;25.37;23.41895;951.7377;;;;
2019/04/22 12:16:52;;;;;;;8;4.1;;;;;;;25.34;23.99902;951.8518;;;;
2019/04/22 12:19:17;;;;;;;12.8;4;;;;;;;25.26;23.4248;951.8066;;;;
2019/04/22 12:21:43;;;;;;;9.4;3.9;;;;;;;25.19;23.09473;951.7629;;;;
2019/04/22 12:24:08;;;;;;;12.2;4;;;;;;;25.27;23.13477;951.7854;;;;
2019/04/22 12:28:34;;;;;;;7.4;3.7;;;;;;;25.25;22.70996;951.7285;;;;
2019/04/22 12:30:59;;;;;;;10.2;3.9;;;;;;;25.18;23.26367;951.6848;;;;
2019/04/22 12:33:26;;;;;;;8.1;3.8;;;;;;;25.1;23.22266;951.567;;;;
2019/04/22 12:35:52;;;;;;;7.9;3.6;;;;;;;25.03;23.07324;951.5596;;;;
2019/04/22 12:38:17;;;;;;;5.8;3.6;;;;;;;25.12;23.24805;951.5003;;;;
2019/04/22 12:40:42;;;;;;;6.6;3.8;;;;;;;25.21;23.17969;951.4906;;;;
2019/04/22 12:43:09;;;;;;;6.8;3.5;;;;;;;25.1;23.0293;951.4738;;;;
2019/04/22 12:45:34;;;;;;;7.1;3.4;;;;;;;25.35;22.16895;951.4235;;;;
2019/04/22 12:47:59;;;;;;;5.1;3.2;;;;;;;25.33;22.37402;951.3799;;;;
2019/04/22 12:50:24;;;;;;;6.8;3.2;;;;;;;25.03;21.94727;951.2876;;;;
2019/04/22 12:52:51;;;;;;;8.7;3.5;;;;;;;25.31;21.86426;951.2961;;;;
2019/04/22 12:55:17;;;;;;;6.3;3.4;;;;;;;25.14;22.21973;951.2206;;;;
2019/04/22 12:57:42;;;;;;;8.5;3.5;;;;;;;25.16;22.06348;951.1919;;;;
2019/04/22 13:00:09;;;;;;;6.7;3.3;;;;;;;25.15;22.13574;951.1404;;;;
2019/04/22 13:02:34;;;;;;;8.8;3.6;;;;;;;25.23;22.44141;951.1384;;;;
2019/04/22 13:04:59;;;;;;;5.5;3.3;;;;;;;25.44;22.27051;951.0996;;;;
2019/04/22 13:07:28;;;;;;;5.9;3.4;;;;;;;25.14;21.94043;951.0246;;;;
2019/04/22 13:09:53;;;;;;;6.5;3.3;;;;;;;25.44;21.89551;950.974;;;;
2019/04/22 13:12:21;;;;;;;6.8;3.4;;;;;;;25.6;21.59961;950.8365;;;;
2019/04/22 13:14:46;;;;;;;9.1;3.2;;;;;;;25.57;20.71289;950.8672;;;;
2019/04/22 13:17:12;;;;;;;6.6;3.2;;;;;;;25.68;21.09375;950.758;;;;
2019/04/22 13:19:37;;;;;;;6.1;3.3;;;;;;;25.74;20.74512;950.8089;;;;
2019/04/22 13:22:02;;;;;;;5.5;3.3;;;;;;;25.72;21.16895;950.8089;;;;
2019/04/22 13:24:27;;;;;;;9.7;3.3;;;;;;;25.66;20.51074;950.7845;;;;
2019/04/22 13:26:52;;;;;;;8.5;3.7;;;;;;;25.54;21.01465;950.7147;;;;
2019/04/22 13:29:20;;;;;;;8.3;3.3;;;;;;;25.43;20.45117;950.7207;;;;
2019/04/22 13:31:45;;;;;;;7;3.2;;;;;;;25.29;20.11816;950.649;;;;
2019/04/22 13:34:12;;;;;;;6.1;3.2;;;;;;;25.34;20.14453;950.6451;;;;
2019/04/22 13:36:37;;;;;;;6.8;3.6;;;;;;;25.61;20.45996;950.6609;;;;
2019/04/22 13:39:03;;;;;;;4.5;3.2;;;;;;;25.3;20.48145;950.5673;;;;
2019/04/22 13:41:27;;;;;;;5;3.2;;;;;;;25.39;18.99512;950.5381;;;;
2019/04/22 13:43:53;;;;;;;6.2;3;;;;;;;25.61;19.47754;950.5981;;;;
2019/04/22 13:46:18;;;;;;;8.5;3.1;;;;;;;25.5;19.86035;950.5604;;;;
2019/04/22 13:48:43;;;;;;;7.3;3;;;;;;;25.63;19.28418;950.5486;;;;
2019/04/22 13:51:08;;;;;;;5;2.8;;;;;;;25.58;19.08789;950.606;;;;
2019/04/22 13:53:33;;;;;;;4;2.7;;;;;;;25.51;19.4248;950.5071;;;;
2019/04/22 13:55:58;;;;;;;5;2.7;;;;;;;25.51;18.93945;950.627;;;;
